createdAt,value
2017-12-12T00:00:02.131Z,5.70
2017-12-12T00:01:05.387Z,5.70
2017-12-12T00:02:08.628Z,5.70
2017-12-12T00:03:11.862Z,5.70
2017-12-12T00:04:15.094Z,5.70
2017-12-12T00:05:17.569Z,5.70
2017-12-12T00:06:20.037Z,5.70
2017-12-12T00:07:22.505Z,5.70
2017-12-12T00:08:24.982Z,5.70
2017-12-12T00:09:27.448Z,5.70
2017-12-12T00:10:29.949Z,5.70
2017-12-12T00:11:34.514Z,5.70
2017-12-12T00:12:37.112Z,5.70
2017-12-12T00:13:39.604Z,5.70
2017-12-12T00:14:42.090Z,5.70
2017-12-12T00:15:44.644Z,5.80
2017-12-12T00:16:47.896Z,5.80
2017-12-12T00:17:50.379Z,5.80
2017-12-12T00:18:53.603Z,5.80
2017-12-12T00:19:56.119Z,5.80
2017-12-12T00:20:58.610Z,5.80
2017-12-12T00:22:01.087Z,5.80
2017-12-12T00:23:03.546Z,5.80
2017-12-12T00:24:07.764Z,5.80
2017-12-12T00:25:10.804Z,5.80
2017-12-12T00:26:13.293Z,5.80
2017-12-12T00:27:15.766Z,5.70
2017-12-12T00:28:18.214Z,5.70
2017-12-12T00:29:21.473Z,5.80
2017-12-12T00:30:24.692Z,5.80
2017-12-12T00:31:27.176Z,5.70
2017-12-12T00:32:29.643Z,5.80
2017-12-12T00:33:32.951Z,5.80
2017-12-12T00:34:35.470Z,5.70
2017-12-12T00:35:38.240Z,5.80
2017-12-12T00:36:40.724Z,5.80
2017-12-12T00:37:43.222Z,5.80
2017-12-12T00:38:45.690Z,5.80
2017-12-12T00:39:48.174Z,5.70
2017-12-12T00:40:50.683Z,5.70
2017-12-12T00:41:53.907Z,5.70
2017-12-12T00:42:56.392Z,5.70
2017-12-12T00:43:58.857Z,5.80
2017-12-12T00:45:01.315Z,5.80
2017-12-12T00:46:03.833Z,5.80
2017-12-12T00:47:07.062Z,5.80
2017-12-12T00:48:10.304Z,5.80
2017-12-12T00:49:13.558Z,5.80
2017-12-12T00:50:16.797Z,5.80
2017-12-12T00:51:20.023Z,5.80
2017-12-12T00:52:22.488Z,5.80
2017-12-12T00:53:24.959Z,5.80
2017-12-12T00:54:27.439Z,5.80
2017-12-12T00:55:29.934Z,5.80
2017-12-12T00:56:33.595Z,5.80
2017-12-12T00:57:36.068Z,5.70
2017-12-12T00:58:38.647Z,5.80
2017-12-12T00:59:41.153Z,5.80
2017-12-12T01:00:44.392Z,5.80
2017-12-12T01:01:47.643Z,5.80
2017-12-12T01:02:50.899Z,5.80
2017-12-12T01:03:53.378Z,5.80
2017-12-12T01:04:55.850Z,5.80
2017-12-12T01:05:58.322Z,5.80
2017-12-12T01:07:00.798Z,5.80
2017-12-12T01:08:03.261Z,5.80
2017-12-12T01:09:05.714Z,5.80
2017-12-12T01:10:08.194Z,5.80
2017-12-12T01:11:10.660Z,5.80
2017-12-12T01:12:13.168Z,5.80
2017-12-12T01:13:15.656Z,5.80
2017-12-12T01:14:18.130Z,5.90
2017-12-12T01:15:20.599Z,5.90
2017-12-12T01:16:23.063Z,5.90
2017-12-12T01:17:30.674Z,5.90
2017-12-12T01:18:33.212Z,5.90
2017-12-12T01:19:35.724Z,6.00
2017-12-12T01:20:38.212Z,6.00
2017-12-12T01:21:40.714Z,6.00
2017-12-12T01:22:43.284Z,6.00
2017-12-12T01:23:46.526Z,6.00
2017-12-12T01:24:49.790Z,6.00
2017-12-12T01:25:52.256Z,6.00
2017-12-12T01:26:54.739Z,6.00
2017-12-12T01:27:57.210Z,6.00
2017-12-12T01:28:59.767Z,6.00
2017-12-12T01:30:02.988Z,6.00
2017-12-12T01:31:05.456Z,6.00
2017-12-12T01:32:07.918Z,6.00
2017-12-12T01:33:10.371Z,6.00
2017-12-12T01:34:13.636Z,6.10
2017-12-12T01:35:16.859Z,6.00
2017-12-12T01:36:20.120Z,6.10
2017-12-12T01:37:23.612Z,6.00
2017-12-12T01:38:26.184Z,6.00
2017-12-12T01:39:29.540Z,6.00
2017-12-12T01:40:32.785Z,6.00
2017-12-12T01:41:35.258Z,6.00
2017-12-12T01:42:37.826Z,6.00
2017-12-12T01:43:41.060Z,6.00
2017-12-12T01:44:43.518Z,6.00
2017-12-12T01:45:45.982Z,6.10
2017-12-12T01:46:48.479Z,6.00
2017-12-12T01:47:50.941Z,6.00
2017-12-12T01:48:54.917Z,6.00
2017-12-12T01:49:57.470Z,6.00
2017-12-12T01:50:59.914Z,6.00
2017-12-12T01:52:02.413Z,6.00
2017-12-12T01:53:04.876Z,6.00
2017-12-12T01:54:07.345Z,6.00
2017-12-12T01:55:10.601Z,6.00
2017-12-12T01:56:13.086Z,6.00
2017-12-12T01:57:15.550Z,6.00
2017-12-12T01:58:18.017Z,6.00
2017-12-12T01:59:20.478Z,6.00
2017-12-12T02:00:23.711Z,6.00
2017-12-12T02:01:26.185Z,5.90
2017-12-12T02:02:28.655Z,5.90
2017-12-12T02:03:31.209Z,5.90
2017-12-12T02:04:34.438Z,5.90
2017-12-12T02:05:37.683Z,5.90
2017-12-12T02:06:40.907Z,5.90
2017-12-12T02:07:43.370Z,5.80
2017-12-12T02:08:46.378Z,5.90
2017-12-12T02:09:48.840Z,5.90
2017-12-12T02:10:51.338Z,5.90
2017-12-12T02:11:54.565Z,5.80
2017-12-12T02:12:57.048Z,5.80
2017-12-12T02:13:59.512Z,5.80
2017-12-12T02:15:01.972Z,5.80
2017-12-12T02:16:04.459Z,5.90
2017-12-12T02:17:06.924Z,5.90
2017-12-12T02:18:10.159Z,5.90
2017-12-12T02:19:13.374Z,5.90
2017-12-12T02:20:15.833Z,5.90
2017-12-12T02:21:18.326Z,5.90
2017-12-12T02:22:20.803Z,5.90
2017-12-12T02:23:23.284Z,5.90
2017-12-12T02:24:26.516Z,5.90
2017-12-12T02:25:29.074Z,5.90
2017-12-12T02:26:31.595Z,5.90
2017-12-12T02:27:34.116Z,5.90
2017-12-12T02:28:37.378Z,5.90
2017-12-12T02:29:39.833Z,5.90
2017-12-12T02:30:42.315Z,5.90
2017-12-12T02:31:45.538Z,5.90
2017-12-12T02:32:48.772Z,5.90
2017-12-12T02:33:51.333Z,5.90
2017-12-12T02:34:53.779Z,5.90
2017-12-12T02:35:56.261Z,5.90
2017-12-12T02:36:59.508Z,5.90
2017-12-12T02:38:02.728Z,5.90
2017-12-12T02:39:05.193Z,5.90
2017-12-12T02:40:07.716Z,6.00
2017-12-12T02:41:10.451Z,6.00
2017-12-12T02:43:22.436Z,6.00
2017-12-12T02:44:25.693Z,6.00
2017-12-12T02:45:28.174Z,6.00
2017-12-12T02:46:30.641Z,6.00
2017-12-12T02:47:33.120Z,6.10
2017-12-12T02:48:35.590Z,6.10
2017-12-12T02:49:38.117Z,6.10
2017-12-12T02:50:41.467Z,6.10
2017-12-12T02:51:43.925Z,6.10
2017-12-12T02:52:46.410Z,6.20
2017-12-12T02:53:48.939Z,6.20
2017-12-12T02:54:51.427Z,6.20
2017-12-12T02:55:53.906Z,6.20
2017-12-12T02:56:56.408Z,6.20
2017-12-12T02:57:59.683Z,6.20
2017-12-12T02:59:02.149Z,6.20
2017-12-12T03:00:04.619Z,6.20
2017-12-12T03:01:07.139Z,6.30
2017-12-12T03:02:09.595Z,6.30
2017-12-12T03:03:12.071Z,6.30
2017-12-12T03:04:15.302Z,6.30
2017-12-12T03:05:18.563Z,6.40
2017-12-12T03:06:21.017Z,6.30
2017-12-12T03:07:23.490Z,6.40
2017-12-12T03:08:25.946Z,6.40
2017-12-12T03:09:28.411Z,6.40
2017-12-12T03:10:30.893Z,6.40
2017-12-12T03:11:33.358Z,6.40
2017-12-12T03:12:35.825Z,6.40
2017-12-12T03:13:39.071Z,6.40
2017-12-12T03:14:42.355Z,6.40
2017-12-12T03:15:44.825Z,6.40
2017-12-12T03:16:48.048Z,6.40
2017-12-12T03:17:50.634Z,6.40
2017-12-12T03:18:53.098Z,6.50
2017-12-12T03:19:55.552Z,6.40
2017-12-12T03:20:58.820Z,6.50
2017-12-12T03:22:01.278Z,6.50
2017-12-12T03:23:03.744Z,6.50
2017-12-12T03:24:07.030Z,6.50
2017-12-12T03:25:09.491Z,6.50
2017-12-12T03:26:11.974Z,6.50
2017-12-12T03:27:14.420Z,6.50
2017-12-12T03:28:16.895Z,6.50
2017-12-12T03:29:19.348Z,6.50
2017-12-12T03:30:21.802Z,6.50
2017-12-12T03:31:24.279Z,6.50
2017-12-12T03:32:26.743Z,6.50
2017-12-12T03:33:29.222Z,6.60
2017-12-12T03:34:31.671Z,6.60
2017-12-12T03:35:34.147Z,6.60
2017-12-12T03:36:37.378Z,6.70
2017-12-12T03:37:41.368Z,6.70
2017-12-12T03:38:43.903Z,6.60
2017-12-12T03:39:46.372Z,6.70
2017-12-12T03:40:48.847Z,6.70
2017-12-12T03:41:51.298Z,6.70
2017-12-12T03:42:53.743Z,6.70
2017-12-12T03:43:56.235Z,6.70
2017-12-12T03:44:58.719Z,6.70
2017-12-12T03:46:01.267Z,6.70
2017-12-12T03:47:04.495Z,6.80
2017-12-12T03:48:07.710Z,6.80
2017-12-12T03:49:10.271Z,6.70
2017-12-12T03:50:13.503Z,6.80
2017-12-12T03:51:16.743Z,6.80
2017-12-12T03:52:19.970Z,6.80
2017-12-12T03:53:22.450Z,6.80
2017-12-12T03:54:24.911Z,6.80
2017-12-12T03:55:27.371Z,6.80
2017-12-12T03:56:30.582Z,6.90
2017-12-12T03:57:33.041Z,6.90
2017-12-12T03:58:36.412Z,6.90
2017-12-12T03:59:38.853Z,6.90
2017-12-12T04:00:41.344Z,6.90
2017-12-12T04:01:43.823Z,6.90
2017-12-12T04:02:46.300Z,6.90
2017-12-12T04:03:48.787Z,7.00
2017-12-12T04:04:51.288Z,7.00
2017-12-12T04:05:53.887Z,7.00
2017-12-12T04:06:56.355Z,7.00
2017-12-12T04:07:58.830Z,7.00
2017-12-12T04:09:01.346Z,7.00
2017-12-12T04:10:04.594Z,7.10
2017-12-12T04:11:07.043Z,7.00
2017-12-12T04:12:09.503Z,7.10
2017-12-12T04:13:11.966Z,7.10
2017-12-12T04:14:14.452Z,7.00
2017-12-12T04:15:17.799Z,7.00
2017-12-12T04:16:20.270Z,7.00
2017-12-12T04:17:22.776Z,7.00
2017-12-12T04:18:25.230Z,7.00
2017-12-12T04:19:27.726Z,7.00
2017-12-12T04:20:30.216Z,7.00
2017-12-12T04:21:32.696Z,7.00
2017-12-12T04:22:35.223Z,7.00
2017-12-12T04:23:37.688Z,7.00
2017-12-12T04:24:40.154Z,7.00
2017-12-12T04:25:42.646Z,7.00
2017-12-12T04:26:45.111Z,7.00
2017-12-12T04:27:47.579Z,7.00
2017-12-12T04:28:50.042Z,7.00
2017-12-12T04:29:53.307Z,7.00
2017-12-12T04:30:55.796Z,7.10
2017-12-12T04:31:59.032Z,7.10
2017-12-12T04:33:01.479Z,7.10
2017-12-12T04:34:04.711Z,7.20
2017-12-12T04:35:07.986Z,7.20
2017-12-12T04:36:10.474Z,7.20
2017-12-12T04:37:13.739Z,7.20
2017-12-12T04:38:16.201Z,7.10
2017-12-12T04:39:18.686Z,7.20
2017-12-12T04:40:21.133Z,7.20
2017-12-12T04:41:23.627Z,7.20
2017-12-12T04:42:26.839Z,7.20
2017-12-12T04:43:29.425Z,7.10
2017-12-12T04:44:32.092Z,7.20
2017-12-12T04:45:34.570Z,7.20
2017-12-12T04:46:37.027Z,7.20
2017-12-12T04:47:39.487Z,7.20
2017-12-12T04:48:42.748Z,7.20
2017-12-12T04:49:45.960Z,7.20
2017-12-12T04:50:48.417Z,7.20
2017-12-12T04:51:50.906Z,7.20
2017-12-12T04:52:53.395Z,7.20
2017-12-12T04:53:55.913Z,7.20
2017-12-12T04:54:58.379Z,7.20
2017-12-12T04:56:01.041Z,7.20
2017-12-12T04:57:03.458Z,7.20
2017-12-12T04:58:06.753Z,7.20
2017-12-12T04:59:09.215Z,7.20
2017-12-12T05:00:11.675Z,7.20
2017-12-12T05:01:14.136Z,7.20
2017-12-12T05:02:16.610Z,7.30
2017-12-12T05:03:19.862Z,7.30
2017-12-12T05:04:22.349Z,7.30
2017-12-12T05:05:24.978Z,7.30
2017-12-12T05:06:27.450Z,7.30
2017-12-12T05:08:45.230Z,7.40
2017-12-12T05:09:47.704Z,7.30
2017-12-12T05:10:50.161Z,7.40
2017-12-12T05:11:52.658Z,7.40
2017-12-12T05:12:55.129Z,7.40
2017-12-12T05:13:57.599Z,7.30
2017-12-12T05:15:00.124Z,7.30
2017-12-12T05:16:03.360Z,7.30
2017-12-12T05:17:06.626Z,7.30
2017-12-12T05:18:09.090Z,7.30
2017-12-12T05:19:11.549Z,7.30
2017-12-12T05:20:14.782Z,7.30
2017-12-12T05:21:17.244Z,7.30
2017-12-12T05:22:19.731Z,7.40
2017-12-12T05:23:22.954Z,7.40
2017-12-12T05:24:25.435Z,7.40
2017-12-12T05:25:27.896Z,7.40
2017-12-12T05:26:30.395Z,7.40
2017-12-12T05:27:32.992Z,7.40
2017-12-12T05:28:36.214Z,7.40
2017-12-12T05:29:38.659Z,7.40
2017-12-12T05:30:41.174Z,7.40
2017-12-12T05:31:44.398Z,7.40
2017-12-12T05:32:46.961Z,7.40
2017-12-12T05:33:50.145Z,7.40
2017-12-12T05:34:52.618Z,7.40
2017-12-12T05:35:55.872Z,7.40
2017-12-12T05:36:58.318Z,7.40
2017-12-12T05:38:00.866Z,7.40
2017-12-12T05:39:03.347Z,7.40
2017-12-12T05:40:06.287Z,7.40
2017-12-12T05:41:08.747Z,7.50
2017-12-12T05:42:11.211Z,7.50
2017-12-12T05:43:14.478Z,7.50
2017-12-12T05:44:16.996Z,7.50
2017-12-12T05:45:19.453Z,7.50
2017-12-12T05:46:21.906Z,7.50
2017-12-12T05:47:25.143Z,7.50
2017-12-12T05:48:27.626Z,7.50
2017-12-12T05:49:30.091Z,7.50
2017-12-12T05:50:32.560Z,7.50
2017-12-12T05:51:35.036Z,7.50
2017-12-12T05:52:37.494Z,7.50
2017-12-12T05:53:40.816Z,7.60
2017-12-12T05:54:44.060Z,7.60
2017-12-12T05:55:46.550Z,7.60
2017-12-12T05:56:49.082Z,7.60
2017-12-12T05:57:51.558Z,7.60
2017-12-12T05:58:54.813Z,7.60
2017-12-12T05:59:58.023Z,7.70
2017-12-12T06:01:00.523Z,7.60
2017-12-12T06:02:02.984Z,7.70
2017-12-12T06:03:06.244Z,7.60
2017-12-12T06:04:09.463Z,7.60
2017-12-12T06:05:12.702Z,7.60
2017-12-12T06:06:15.165Z,7.60
2017-12-12T06:07:17.979Z,7.60
2017-12-12T06:08:21.219Z,7.60
2017-12-12T06:09:24.458Z,7.60
2017-12-12T06:10:27.701Z,7.60
2017-12-12T06:11:30.967Z,7.60
2017-12-12T06:12:33.430Z,7.60
2017-12-12T06:13:35.953Z,7.60
2017-12-12T06:14:38.409Z,7.60
2017-12-12T06:15:40.942Z,7.60
2017-12-12T06:16:44.216Z,7.60
2017-12-12T06:17:46.689Z,7.60
2017-12-12T06:18:49.250Z,7.60
2017-12-12T06:19:51.713Z,7.60
2017-12-12T06:20:54.154Z,7.60
2017-12-12T06:21:57.406Z,7.70
2017-12-12T06:22:59.899Z,7.60
2017-12-12T06:24:02.339Z,7.70
2017-12-12T06:25:04.821Z,7.60
2017-12-12T06:26:07.310Z,7.60
2017-12-12T06:27:09.822Z,7.60
2017-12-12T06:28:12.266Z,7.60
2017-12-12T06:29:14.918Z,7.60
2017-12-12T06:30:18.146Z,7.70
2017-12-12T06:31:21.476Z,7.60
2017-12-12T06:32:24.026Z,7.60
2017-12-12T06:33:27.243Z,7.60
2017-12-12T06:34:29.713Z,7.60
2017-12-12T06:35:32.178Z,7.60
2017-12-12T06:36:34.649Z,7.70
2017-12-12T06:37:37.988Z,7.70
2017-12-12T06:38:41.222Z,7.70
2017-12-12T06:39:44.444Z,7.70
2017-12-12T06:40:47.015Z,7.60
2017-12-12T06:41:49.492Z,7.70
2017-12-12T06:42:53.483Z,7.70
2017-12-12T06:43:56.715Z,7.70
2017-12-12T06:45:00.762Z,7.70
2017-12-12T06:46:03.328Z,7.70
2017-12-12T06:47:05.811Z,7.70
2017-12-12T06:48:08.270Z,7.70
2017-12-12T06:49:10.790Z,7.70
2017-12-12T06:50:13.260Z,7.60
2017-12-12T06:51:15.785Z,7.60
2017-12-12T06:52:18.242Z,7.60
2017-12-12T06:53:20.734Z,7.60
2017-12-12T06:54:23.194Z,7.60
2017-12-12T06:55:26.460Z,7.50
2017-12-12T06:56:28.941Z,7.50
2017-12-12T06:57:31.410Z,7.50
2017-12-12T06:58:34.659Z,7.60
2017-12-12T06:59:37.109Z,7.60
2017-12-12T07:00:39.575Z,7.60
2017-12-12T07:01:42.828Z,7.60
2017-12-12T07:02:46.109Z,7.60
2017-12-12T07:03:48.612Z,7.60
2017-12-12T07:04:51.082Z,7.60
2017-12-12T07:05:53.582Z,7.60
2017-12-12T07:06:56.035Z,7.60
2017-12-12T07:07:58.510Z,7.60
2017-12-12T07:09:01.754Z,7.60
2017-12-12T07:10:04.258Z,7.60
2017-12-12T07:11:07.492Z,7.60
2017-12-12T07:12:09.958Z,7.60
2017-12-12T07:13:12.420Z,7.50
2017-12-12T07:14:14.899Z,7.50
2017-12-12T07:15:17.399Z,7.50
2017-12-12T07:16:20.852Z,7.50
2017-12-12T07:17:24.118Z,7.50
2017-12-12T07:18:26.587Z,7.50
2017-12-12T07:19:29.056Z,7.50
2017-12-12T07:20:31.557Z,7.50
2017-12-12T07:21:34.779Z,7.50
2017-12-12T07:22:37.258Z,7.50
2017-12-12T07:23:39.719Z,7.40
2017-12-12T07:24:42.200Z,7.40
2017-12-12T07:25:44.730Z,7.40
2017-12-12T07:26:47.204Z,7.40
2017-12-12T07:27:49.659Z,7.40
2017-12-12T07:28:52.918Z,7.40
2017-12-12T07:29:56.130Z,7.40
2017-12-12T07:30:58.884Z,7.40
2017-12-12T07:32:02.155Z,7.40
2017-12-12T07:33:04.597Z,7.40
2017-12-12T07:34:07.066Z,7.40
2017-12-12T07:35:10.316Z,7.40
2017-12-12T07:36:13.567Z,7.40
2017-12-12T07:37:16.048Z,7.40
2017-12-12T07:38:18.504Z,7.40
2017-12-12T07:39:21.762Z,7.30
2017-12-12T07:40:24.209Z,7.40
2017-12-12T07:41:26.710Z,7.40
2017-12-12T07:42:29.175Z,7.40
2017-12-12T07:43:31.627Z,7.30
2017-12-12T07:44:34.086Z,7.40
2017-12-12T07:45:36.548Z,7.40
2017-12-12T07:46:39.041Z,7.30
2017-12-12T07:47:41.521Z,7.30
2017-12-12T07:48:43.966Z,7.30
2017-12-12T07:49:47.186Z,7.30
2017-12-12T07:50:49.654Z,7.30
2017-12-12T07:51:52.133Z,7.30
2017-12-12T07:52:54.598Z,7.30
2017-12-12T07:53:57.062Z,7.30
2017-12-12T07:54:59.555Z,7.30
2017-12-12T07:56:02.045Z,7.30
2017-12-12T07:57:05.362Z,7.30
2017-12-12T07:58:07.824Z,7.20
2017-12-12T07:59:11.065Z,7.30
2017-12-12T08:00:13.511Z,7.30
2017-12-12T08:01:15.994Z,7.30
2017-12-12T08:02:18.465Z,7.30
2017-12-12T08:03:20.920Z,7.20
2017-12-12T08:04:23.390Z,7.30
2017-12-12T08:05:26.621Z,7.30
2017-12-12T08:06:29.843Z,7.30
2017-12-12T08:07:32.518Z,7.30
2017-12-12T08:08:34.966Z,7.30
2017-12-12T08:09:37.434Z,7.30
2017-12-12T08:10:39.898Z,7.30
2017-12-12T08:11:42.358Z,7.20
2017-12-12T08:12:44.846Z,7.30
2017-12-12T08:13:47.307Z,7.30
2017-12-12T08:14:49.799Z,7.30
2017-12-12T08:15:52.275Z,7.30
2017-12-12T08:16:54.731Z,7.30
2017-12-12T08:17:57.992Z,7.30
2017-12-12T08:19:00.476Z,7.30
2017-12-12T08:20:04.448Z,7.20
2017-12-12T08:21:06.900Z,7.20
2017-12-12T08:22:09.377Z,7.30
2017-12-12T08:23:11.936Z,7.20
2017-12-12T08:24:15.182Z,7.20
2017-12-12T08:25:17.653Z,7.20
2017-12-12T08:26:20.162Z,7.20
2017-12-12T08:27:22.652Z,7.20
2017-12-12T08:28:25.886Z,7.20
2017-12-12T08:29:29.118Z,7.20
2017-12-12T08:30:32.377Z,7.20
2017-12-12T08:31:35.606Z,7.20
2017-12-12T08:32:38.874Z,7.20
2017-12-12T08:33:41.336Z,7.20
2017-12-12T08:34:43.797Z,7.20
2017-12-12T08:35:47.020Z,7.10
2017-12-12T08:36:49.474Z,7.10
2017-12-12T08:37:52.736Z,7.10
2017-12-12T08:38:55.205Z,7.10
2017-12-12T08:39:57.668Z,7.00
2017-12-12T08:41:00.935Z,6.90
2017-12-12T08:42:03.423Z,6.90
2017-12-12T08:43:06.738Z,6.80
2017-12-12T08:44:09.199Z,6.80
2017-12-12T08:45:13.377Z,6.60
2017-12-12T08:46:15.909Z,6.60
2017-12-12T08:47:19.150Z,6.40
2017-12-12T08:48:21.624Z,6.30
2017-12-12T08:49:24.087Z,6.20
2017-12-12T08:50:27.307Z,6.00
2017-12-12T08:51:29.804Z,6.10
2017-12-12T08:52:32.290Z,5.90
2017-12-12T08:53:34.726Z,5.80
2017-12-12T08:54:37.199Z,5.70
2017-12-12T08:55:39.659Z,5.60
2017-12-12T08:56:42.151Z,5.60
2017-12-12T08:57:44.610Z,5.50
2017-12-12T08:58:47.137Z,5.40
2017-12-12T08:59:49.703Z,5.30
2017-12-12T09:00:52.163Z,5.20
2017-12-12T09:01:55.423Z,5.10
2017-12-12T09:02:58.727Z,5.00
2017-12-12T09:04:01.220Z,5.00
2017-12-12T09:05:03.691Z,5.00
2017-12-12T09:06:06.256Z,4.90
2017-12-12T09:07:09.455Z,4.90
2017-12-12T09:08:11.919Z,4.90
2017-12-12T09:09:14.406Z,4.90
2017-12-12T09:10:16.852Z,4.90
2017-12-12T09:11:20.111Z,4.80
2017-12-12T09:12:22.643Z,4.90
2017-12-12T09:13:25.110Z,4.80
2017-12-12T09:14:27.613Z,4.80
2017-12-12T09:15:30.141Z,4.80
2017-12-12T09:16:32.775Z,4.80
2017-12-12T09:17:35.275Z,4.80
2017-12-12T09:18:37.744Z,4.70
2017-12-12T09:19:40.310Z,4.80
2017-12-12T09:20:42.793Z,4.70
2017-12-12T09:21:45.263Z,4.70
2017-12-12T09:22:47.713Z,4.70
2017-12-12T09:23:50.170Z,4.70
2017-12-12T09:24:52.662Z,4.70
2017-12-12T09:25:55.148Z,4.70
2017-12-12T09:26:58.408Z,4.60
2017-12-12T09:28:00.872Z,4.60
2017-12-12T09:29:03.331Z,4.60
2017-12-12T09:30:06.997Z,4.50
2017-12-12T09:31:10.237Z,4.50
2017-12-12T09:32:13.479Z,4.50
2017-12-12T09:33:16.706Z,4.50
2017-12-12T09:34:21.337Z,4.50
2017-12-12T09:35:23.936Z,4.50
2017-12-12T09:36:29.770Z,4.50
2017-12-12T09:37:32.984Z,4.50
2017-12-12T09:38:35.486Z,4.50
2017-12-12T09:39:39.438Z,4.40
2017-12-12T09:40:42.671Z,4.40
2017-12-12T09:41:45.152Z,4.40
2017-12-12T09:42:47.606Z,4.40
2017-12-12T09:43:50.153Z,4.40
2017-12-12T09:44:52.617Z,4.40
2017-12-12T09:45:55.125Z,4.40
2017-12-12T09:46:58.371Z,4.40
2017-12-12T09:48:00.904Z,4.40
2017-12-12T09:49:03.434Z,4.40
2017-12-12T09:50:05.959Z,4.40
2017-12-12T09:51:08.647Z,4.40
2017-12-12T09:52:11.883Z,4.40
2017-12-12T09:53:14.352Z,4.40
2017-12-12T09:54:16.802Z,4.40
2017-12-12T09:55:19.300Z,4.40
2017-12-12T09:56:21.823Z,4.40
2017-12-12T09:57:24.337Z,4.40
2017-12-12T09:58:27.687Z,4.40
2017-12-12T09:59:30.214Z,4.40
2017-12-12T10:00:32.800Z,4.40
2017-12-12T10:01:35.242Z,4.40
2017-12-12T10:02:38.507Z,4.40
2017-12-12T10:03:41.760Z,4.40
2017-12-12T10:04:44.244Z,4.40
2017-12-12T10:05:46.762Z,4.40
2017-12-12T10:06:49.227Z,4.40
2017-12-12T10:07:52.663Z,4.40
2017-12-12T10:08:55.983Z,4.40
2017-12-12T10:09:58.447Z,4.30
2017-12-12T10:11:01.677Z,4.30
2017-12-12T10:12:05.474Z,4.30
2017-12-12T10:13:07.949Z,4.30
2017-12-12T10:14:14.284Z,4.30
2017-12-12T10:15:16.796Z,4.20
2017-12-12T10:16:20.081Z,4.20
2017-12-12T10:17:22.546Z,4.20
2017-12-12T10:18:25.099Z,4.20
2017-12-12T10:19:28.444Z,4.10
2017-12-12T10:20:31.682Z,4.10
2017-12-12T10:21:34.213Z,4.10
2017-12-12T10:22:37.318Z,4.10
2017-12-12T10:23:40.102Z,4.10
2017-12-12T10:24:42.645Z,4.10
2017-12-12T10:25:45.170Z,4.10
2017-12-12T10:26:47.673Z,4.10
2017-12-12T10:27:50.154Z,4.00
2017-12-12T10:28:53.390Z,4.00
2017-12-12T10:29:55.860Z,4.00
2017-12-12T10:30:58.386Z,4.00
2017-12-12T10:32:00.823Z,4.00
2017-12-12T10:33:03.280Z,4.00
2017-12-12T10:34:05.744Z,4.00
2017-12-12T10:35:08.979Z,4.00
2017-12-12T10:36:12.260Z,4.00
2017-12-12T10:37:14.725Z,4.00
2017-12-12T10:38:17.409Z,4.00
2017-12-12T10:39:19.882Z,4.00
2017-12-12T10:40:23.874Z,4.00
2017-12-12T10:41:27.142Z,4.00
2017-12-12T10:42:29.618Z,4.00
2017-12-12T10:43:34.160Z,4.10
2017-12-12T10:44:36.746Z,4.10
2017-12-12T10:45:39.254Z,4.10
2017-12-12T10:46:42.482Z,4.10
2017-12-12T10:47:44.952Z,4.10
2017-12-12T10:48:47.469Z,4.10
2017-12-12T10:49:49.943Z,4.10
2017-12-12T10:50:52.402Z,4.10
2017-12-12T10:51:55.626Z,4.20
2017-12-12T10:52:58.097Z,4.20
2017-12-12T10:54:00.959Z,4.20
2017-12-12T10:55:03.407Z,4.20
2017-12-12T10:56:06.636Z,4.20
2017-12-12T10:57:09.097Z,4.10
2017-12-12T10:58:11.630Z,4.20
2017-12-12T10:59:14.103Z,4.20
2017-12-12T11:00:16.574Z,4.20
2017-12-12T11:01:19.041Z,4.20
2017-12-12T11:02:21.550Z,4.20
2017-12-12T11:03:24.019Z,4.20
2017-12-12T11:04:26.482Z,4.20
2017-12-12T11:05:28.977Z,4.30
2017-12-12T11:06:31.519Z,4.30
2017-12-12T11:07:34.741Z,4.40
2017-12-12T11:08:37.223Z,4.30
2017-12-12T11:09:39.672Z,4.40
2017-12-12T11:10:42.240Z,4.30
2017-12-12T11:11:44.714Z,4.30
2017-12-12T11:12:47.179Z,4.40
2017-12-12T11:13:50.410Z,4.90
2017-12-12T11:14:53.659Z,5.00
2017-12-12T11:15:56.922Z,5.00
2017-12-12T11:17:00.147Z,4.80
2017-12-12T11:18:03.412Z,4.70
2017-12-12T11:19:05.866Z,4.70
2017-12-12T11:20:09.162Z,4.60
2017-12-12T11:21:11.671Z,4.60
2017-12-12T11:22:14.138Z,4.50
2017-12-12T11:23:16.630Z,4.50
2017-12-12T11:24:19.171Z,4.50
2017-12-12T11:25:21.660Z,4.40
2017-12-12T11:26:24.636Z,4.40
2017-12-12T11:27:27.138Z,4.40
2017-12-12T11:28:29.591Z,4.40
2017-12-12T11:29:32.080Z,4.30
2017-12-12T11:30:34.563Z,4.30
2017-12-12T11:31:37.169Z,4.30
2017-12-12T11:32:39.651Z,4.30
2017-12-12T11:33:42.118Z,4.30
2017-12-12T11:34:44.568Z,4.30
2017-12-12T11:35:47.067Z,4.20
2017-12-12T11:36:50.327Z,4.20
2017-12-12T11:37:52.798Z,4.20
2017-12-12T11:38:55.248Z,4.20
2017-12-12T11:39:58.474Z,4.20
2017-12-12T11:41:01.055Z,4.20
2017-12-12T11:42:03.565Z,4.20
2017-12-12T11:43:06.023Z,4.20
2017-12-12T11:44:08.525Z,4.20
2017-12-12T11:45:11.003Z,4.20
2017-12-12T11:46:14.225Z,4.30
2017-12-12T11:47:16.732Z,4.30
2017-12-12T11:48:19.182Z,4.30
2017-12-12T11:49:21.670Z,4.30
2017-12-12T11:50:24.161Z,4.30
2017-12-12T11:51:27.111Z,4.30
2017-12-12T11:52:29.595Z,4.30
2017-12-12T11:53:32.836Z,4.30
2017-12-12T11:54:35.298Z,4.30
2017-12-12T11:55:37.815Z,4.30
2017-12-12T11:56:40.326Z,4.30
2017-12-12T11:57:43.570Z,4.30
2017-12-12T11:58:46.805Z,4.30
2017-12-12T11:59:49.270Z,4.30
2017-12-12T12:00:51.734Z,4.30
2017-12-12T12:01:54.231Z,4.40
2017-12-12T12:02:56.726Z,4.40
2017-12-12T12:03:59.971Z,4.30
2017-12-12T12:05:02.419Z,4.30
2017-12-12T12:06:04.907Z,4.30
2017-12-12T12:07:08.166Z,4.30
2017-12-12T12:08:10.689Z,4.30
2017-12-12T12:09:13.294Z,4.30
2017-12-12T12:10:15.843Z,4.30
2017-12-12T12:11:18.396Z,4.30
2017-12-12T12:12:21.044Z,4.30
2017-12-12T12:13:23.537Z,4.30
2017-12-12T12:14:26.002Z,4.30
2017-12-12T12:15:28.454Z,4.30
2017-12-12T12:16:31.716Z,4.30
2017-12-12T12:17:34.242Z,4.30
2017-12-12T12:18:36.736Z,4.30
2017-12-12T12:19:39.243Z,4.30
2017-12-12T12:20:41.732Z,4.30
2017-12-12T12:21:44.186Z,4.30
2017-12-12T12:22:46.668Z,4.30
2017-12-12T12:23:49.137Z,4.30
2017-12-12T12:24:51.622Z,4.30
2017-12-12T12:25:54.188Z,4.40
2017-12-12T12:26:56.647Z,4.40
2017-12-12T12:27:59.971Z,4.40
2017-12-12T12:29:02.434Z,4.40
2017-12-12T12:30:04.891Z,4.40
2017-12-12T12:31:07.382Z,4.40
2017-12-12T12:32:09.916Z,4.50
2017-12-12T12:33:12.387Z,4.50
2017-12-12T12:34:14.846Z,4.50
2017-12-12T12:35:18.056Z,4.50
2017-12-12T12:36:20.501Z,4.50
2017-12-12T12:37:23.775Z,4.50
2017-12-12T12:38:26.255Z,4.50
2017-12-12T12:39:28.730Z,4.60
2017-12-12T12:41:41.730Z,4.70
2017-12-12T12:42:45.095Z,4.70
2017-12-12T12:43:47.566Z,4.70
2017-12-12T12:44:50.020Z,4.70
2017-12-12T12:45:52.484Z,4.70
2017-12-12T12:46:54.951Z,4.70
2017-12-12T12:47:57.437Z,4.70
2017-12-12T12:48:59.934Z,4.70
2017-12-12T12:50:03.292Z,4.70
2017-12-12T12:51:05.853Z,4.70
2017-12-12T12:52:08.397Z,4.70
2017-12-12T12:53:10.970Z,4.80
2017-12-12T12:54:13.431Z,4.80
2017-12-12T12:55:15.922Z,4.80
2017-12-12T12:56:18.409Z,4.80
2017-12-12T12:57:20.921Z,4.80
2017-12-12T12:58:23.402Z,4.90
2017-12-12T12:59:26.125Z,4.80
2017-12-12T13:00:28.626Z,4.80
2017-12-12T13:01:31.909Z,4.80
2017-12-12T13:02:34.389Z,4.70
2017-12-12T13:03:37.659Z,4.80
2017-12-12T13:04:40.741Z,4.70
2017-12-12T13:05:43.243Z,4.70
2017-12-12T13:06:45.761Z,4.70
2017-12-12T13:07:48.324Z,4.70
2017-12-12T13:08:50.784Z,4.70
2017-12-12T13:09:54.022Z,4.60
2017-12-12T13:10:57.268Z,4.70
2017-12-12T13:12:00.553Z,4.70
2017-12-12T13:13:03.050Z,4.70
2017-12-12T13:14:05.531Z,4.70
2017-12-12T13:15:07.989Z,4.70
2017-12-12T13:16:11.261Z,4.60
2017-12-12T13:17:13.758Z,4.60
2017-12-12T13:18:16.657Z,4.60
2017-12-12T13:19:19.926Z,4.60
2017-12-12T13:20:23.713Z,4.60
2017-12-12T13:21:26.323Z,4.60
2017-12-12T13:22:29.594Z,4.60
2017-12-12T13:23:32.330Z,4.60
2017-12-12T13:24:34.840Z,4.60
2017-12-12T13:25:37.298Z,4.60
2017-12-12T13:26:39.793Z,4.60
2017-12-12T13:27:42.251Z,4.60
2017-12-12T13:28:44.712Z,4.60
2017-12-12T13:29:47.939Z,4.60
2017-12-12T13:30:50.570Z,4.60
2017-12-12T13:31:55.185Z,4.70
2017-12-12T13:32:57.762Z,4.60
2017-12-12T13:34:00.214Z,4.70
2017-12-12T13:35:03.490Z,4.60
2017-12-12T13:36:05.981Z,4.60
2017-12-12T13:37:09.239Z,4.60
2017-12-12T13:38:11.709Z,4.60
2017-12-12T13:39:14.179Z,4.60
2017-12-12T13:40:16.642Z,4.60
2017-12-12T13:41:19.141Z,4.60
2017-12-12T13:42:21.622Z,4.60
2017-12-12T13:43:24.186Z,4.70
2017-12-12T13:44:26.651Z,4.70
2017-12-12T13:45:29.130Z,4.70
2017-12-12T13:46:31.597Z,4.70
2017-12-12T13:47:34.087Z,4.60
2017-12-12T13:48:36.558Z,4.60
2017-12-12T13:49:39.031Z,4.60
2017-12-12T13:50:41.508Z,4.60
2017-12-12T13:51:44.011Z,4.60
2017-12-12T13:52:46.478Z,4.60
2017-12-12T13:53:48.951Z,4.60
2017-12-12T13:54:51.417Z,4.60
2017-12-12T13:55:53.882Z,4.60
2017-12-12T13:56:57.143Z,4.60
2017-12-12T13:57:59.627Z,4.60